sensor_id;sensor_type;location;lat;lon;timestamp;P1;durP1;ratioP1;P2;durP2;ratioP2
20154;SDS011;10238;49.556;10.956;2024-02-16T00:00:08;11.18;;;6.28;;
20154;SDS011;10238;49.556;10.956;2024-02-16T00:02:58;9.13;;;5.28;;
20154;SDS011;10238;49.556;10.956;2024-02-16T00:05:47;9.65;;;5.00;;
20154;SDS011;10238;49.556;10.956;2024-02-16T00:08:36;7.25;;;5.00;;
20154;SDS011;10238;49.556;10.956;2024-02-16T00:11:25;7.13;;;4.75;;
20154;SDS011;10238;49.556;10.956;2024-02-16T00:14:14;7.82;;;4.93;;
20154;SDS011;10238;49.556;10.956;2024-02-16T00:17:03;7.05;;;4.35;;
20154;SDS011;10238;49.556;10.956;2024-02-16T00:19:52;9.57;;;5.47;;
20154;SDS011;10238;49.556;10.956;2024-02-16T00:22:41;8.85;;;5.30;;
20154;SDS011;10238;49.556;10.956;2024-02-16T00:25:28;9.45;;;4.53;;
20154;SDS011;10238;49.556;10.956;2024-02-16T00:28:16;11.02;;;4.88;;
20154;SDS011;10238;49.556;10.956;2024-02-16T00:31:04;7.65;;;5.15;;
20154;SDS011;10238;49.556;10.956;2024-02-16T00:33:52;9.10;;;4.30;;
20154;SDS011;10238;49.556;10.956;2024-02-16T00:36:40;6.13;;;4.53;;
20154;SDS011;10238;49.556;10.956;2024-02-16T00:39:29;10.05;;;4.53;;
20154;SDS011;10238;49.556;10.956;2024-02-16T00:42:16;6.97;;;4.40;;
20154;SDS011;10238;49.556;10.956;2024-02-16T00:45:04;6.07;;;4.47;;
20154;SDS011;10238;49.556;10.956;2024-02-16T00:47:53;7.13;;;4.85;;
20154;SDS011;10238;49.556;10.956;2024-02-16T00:50:42;6.38;;;4.18;;
20154;SDS011;10238;49.556;10.956;2024-02-16T00:53:30;6.38;;;4.35;;
20154;SDS011;10238;49.556;10.956;2024-02-16T00:56:19;5.03;;;3.78;;
20154;SDS011;10238;49.556;10.956;2024-02-16T00:59:06;7.18;;;4.63;;
20154;SDS011;10238;49.556;10.956;2024-02-16T01:01:55;6.25;;;4.55;;
20154;SDS011;10238;49.556;10.956;2024-02-16T01:04:43;7.57;;;5.03;;
20154;SDS011;10238;49.556;10.956;2024-02-16T01:07:33;7.75;;;5.03;;
20154;SDS011;10238;49.556;10.956;2024-02-16T01:10:20;5.78;;;4.25;;
20154;SDS011;10238;49.556;10.956;2024-02-16T01:13:10;7.20;;;4.68;;
20154;SDS011;10238;49.556;10.956;2024-02-16T01:15:58;6.93;;;4.55;;
20154;SDS011;10238;49.556;10.956;2024-02-16T01:18:45;7.65;;;5.05;;
20154;SDS011;10238;49.556;10.956;2024-02-16T01:21:34;8.48;;;5.72;;
20154;SDS011;10238;49.556;10.956;2024-02-16T01:24:21;7.93;;;4.93;;
20154;SDS011;10238;49.556;10.956;2024-02-16T01:27:09;7.35;;;4.50;;
20154;SDS011;10238;49.556;10.956;2024-02-16T01:29:59;6.47;;;4.32;;
20154;SDS011;10238;49.556;10.956;2024-02-16T01:32:46;6.57;;;5.07;;
20154;SDS011;10238;49.556;10.956;2024-02-16T01:35:34;8.38;;;5.07;;
20154;SDS011;10238;49.556;10.956;2024-02-16T01:38:22;7.40;;;5.03;;
20154;SDS011;10238;49.556;10.956;2024-02-16T01:41:10;9.05;;;5.63;;
20154;SDS011;10238;49.556;10.956;2024-02-16T01:44:00;6.95;;;4.57;;
20154;SDS011;10238;49.556;10.956;2024-02-16T01:46:49;9.15;;;5.13;;
20154;SDS011;10238;49.556;10.956;2024-02-16T01:49:37;7.88;;;5.25;;
20154;SDS011;10238;49.556;10.956;2024-02-16T01:52:25;6.00;;;4.82;;
20154;SDS011;10238;49.556;10.956;2024-02-16T01:55:13;7.88;;;4.90;;
20154;SDS011;10238;49.556;10.956;2024-02-16T01:58:01;7.65;;;4.75;;
20154;SDS011;10238;49.556;10.956;2024-02-16T02:00:51;6.20;;;4.32;;
20154;SDS011;10238;49.556;10.956;2024-02-16T02:03:40;5.97;;;4.90;;
20154;SDS011;10238;49.556;10.956;2024-02-16T02:06:28;8.10;;;5.32;;
20154;SDS011;10238;49.556;10.956;2024-02-16T02:09:16;7.43;;;4.95;;
20154;SDS011;10238;49.556;10.956;2024-02-16T02:12:03;5.57;;;4.78;;
20154;SDS011;10238;49.556;10.956;2024-02-16T02:14:51;8.18;;;5.05;;
20154;SDS011;10238;49.556;10.956;2024-02-16T02:17:39;4.80;;;4.13;;
20154;SDS011;10238;49.556;10.956;2024-02-16T02:20:28;7.32;;;5.38;;
20154;SDS011;10238;49.556;10.956;2024-02-16T02:23:17;7.90;;;4.35;;
20154;SDS011;10238;49.556;10.956;2024-02-16T02:26:05;6.93;;;5.03;;
20154;SDS011;10238;49.556;10.956;2024-02-16T02:28:52;6.80;;;4.45;;
20154;SDS011;10238;49.556;10.956;2024-02-16T02:31:40;8.32;;;4.75;;
20154;SDS011;10238;49.556;10.956;2024-02-16T02:34:27;6.55;;;4.35;;
20154;SDS011;10238;49.556;10.956;2024-02-16T02:37:15;6.28;;;4.22;;
20154;SDS011;10238;49.556;10.956;2024-02-16T02:40:04;6.18;;;5.10;;
20154;SDS011;10238;49.556;10.956;2024-02-16T02:42:55;6.17;;;4.93;;
20154;SDS011;10238;49.556;10.956;2024-02-16T02:45:42;6.03;;;4.32;;
20154;SDS011;10238;49.556;10.956;2024-02-16T02:48:30;7.68;;;4.97;;
20154;SDS011;10238;49.556;10.956;2024-02-16T02:51:18;6.30;;;4.50;;
20154;SDS011;10238;49.556;10.956;2024-02-16T02:54:07;6.07;;;4.20;;
20154;SDS011;10238;49.556;10.956;2024-02-16T02:56:56;8.65;;;5.53;;
20154;SDS011;10238;49.556;10.956;2024-02-16T02:59:43;6.03;;;4.85;;
20154;SDS011;10238;49.556;10.956;2024-02-16T03:02:31;6.80;;;5.30;;
20154;SDS011;10238;49.556;10.956;2024-02-16T03:05:19;7.03;;;5.65;;
20154;SDS011;10238;49.556;10.956;2024-02-16T03:08:08;6.03;;;5.15;;
20154;SDS011;10238;49.556;10.956;2024-02-16T03:10:56;7.47;;;4.97;;
20154;SDS011;10238;49.556;10.956;2024-02-16T03:13:48;9.30;;;5.47;;
20154;SDS011;10238;49.556;10.956;2024-02-16T03:16:35;8.85;;;5.38;;
20154;SDS011;10238;49.556;10.956;2024-02-16T03:19:24;6.25;;;5.00;;
20154;SDS011;10238;49.556;10.956;2024-02-16T03:22:12;7.50;;;6.05;;
20154;SDS011;10238;49.556;10.956;2024-02-16T03:25:00;8.38;;;4.85;;
20154;SDS011;10238;49.556;10.956;2024-02-16T03:27:48;9.23;;;4.63;;
20154;SDS011;10238;49.556;10.956;2024-02-16T03:30:37;5.95;;;4.78;;
20154;SDS011;10238;49.556;10.956;2024-02-16T03:33:24;7.45;;;5.63;;
20154;SDS011;10238;49.556;10.956;2024-02-16T03:36:12;7.47;;;5.70;;
20154;SDS011;10238;49.556;10.956;2024-02-16T03:39:00;9.82;;;5.78;;
20154;SDS011;10238;49.556;10.956;2024-02-16T03:41:49;11.85;;;6.03;;
20154;SDS011;10238;49.556;10.956;2024-02-16T03:44:36;8.70;;;5.05;;
20154;SDS011;10238;49.556;10.956;2024-02-16T03:47:25;8.02;;;5.53;;
20154;SDS011;10238;49.556;10.956;2024-02-16T03:50:13;8.57;;;6.00;;
20154;SDS011;10238;49.556;10.956;2024-02-16T03:53:01;9.70;;;5.95;;
20154;SDS011;10238;49.556;10.956;2024-02-16T03:55:50;7.90;;;5.03;;
20154;SDS011;10238;49.556;10.956;2024-02-16T03:58:38;7.68;;;4.95;;
20154;SDS011;10238;49.556;10.956;2024-02-16T04:01:26;8.50;;;5.00;;
20154;SDS011;10238;49.556;10.956;2024-02-16T04:04:15;5.85;;;4.38;;
20154;SDS011;10238;49.556;10.956;2024-02-16T04:07:03;8.30;;;4.45;;
20154;SDS011;10238;49.556;10.956;2024-02-16T04:09:52;7.57;;;5.20;;
20154;SDS011;10238;49.556;10.956;2024-02-16T04:12:39;5.43;;;4.18;;
20154;SDS011;10238;49.556;10.956;2024-02-16T04:15:27;7.10;;;4.32;;
20154;SDS011;10238;49.556;10.956;2024-02-16T04:18:15;6.85;;;4.32;;
20154;SDS011;10238;49.556;10.956;2024-02-16T04:21:06;8.82;;;4.55;;
20154;SDS011;10238;49.556;10.956;2024-02-16T04:23:54;5.90;;;3.78;;
20154;SDS011;10238;49.556;10.956;2024-02-16T04:26:41;5.93;;;4.45;;
20154;SDS011;10238;49.556;10.956;2024-02-16T04:29:28;5.20;;;4.30;;
20154;SDS011;10238;49.556;10.956;2024-02-16T04:32:16;5.75;;;4.32;;
20154;SDS011;10238;49.556;10.956;2024-02-16T04:35:04;6.93;;;4.18;;
20154;SDS011;10238;49.556;10.956;2024-02-16T04:37:59;6.63;;;4.32;;
20154;SDS011;10238;49.556;10.956;2024-02-16T04:40:47;6.78;;;4.57;;
20154;SDS011;10238;49.556;10.956;2024-02-16T04:43:34;5.80;;;4.22;;
20154;SDS011;10238;49.556;10.956;2024-02-16T04:46:22;9.30;;;4.38;;
20154;SDS011;10238;49.556;10.956;2024-02-16T04:49:09;12.65;;;4.45;;
20154;SDS011;10238;49.556;10.956;2024-02-16T04:51:57;6.45;;;3.92;;
20154;SDS011;10238;49.556;10.956;2024-02-16T04:54:46;7.07;;;3.70;;
20154;SDS011;10238;49.556;10.956;2024-02-16T04:57:34;10.02;;;4.22;;
20154;SDS011;10238;49.556;10.956;2024-02-16T05:00:21;6.25;;;4.20;;
20154;SDS011;10238;49.556;10.956;2024-02-16T05:03:10;7.22;;;4.63;;
20154;SDS011;10238;49.556;10.956;2024-02-16T05:05:58;6.40;;;4.35;;
20154;SDS011;10238;49.556;10.956;2024-02-16T05:08:47;8.07;;;4.50;;
20154;SDS011;10238;49.556;10.956;2024-02-16T05:11:37;6.68;;;4.15;;
20154;SDS011;10238;49.556;10.956;2024-02-16T05:14:25;6.57;;;4.40;;
20154;SDS011;10238;49.556;10.956;2024-02-16T05:17:13;10.25;;;4.95;;
20154;SDS011;10238;49.556;10.956;2024-02-16T05:20:01;5.55;;;4.22;;
20154;SDS011;10238;49.556;10.956;2024-02-16T05:22:49;6.57;;;4.50;;
20154;SDS011;10238;49.556;10.956;2024-02-16T05:25:37;7.88;;;4.65;;
20154;SDS011;10238;49.556;10.956;2024-02-16T05:28:26;6.50;;;4.60;;
20154;SDS011;10238;49.556;10.956;2024-02-16T05:31:15;8.52;;;4.85;;
20154;SDS011;10238;49.556;10.956;2024-02-16T05:34:04;7.00;;;4.72;;
20154;SDS011;10238;49.556;10.956;2024-02-16T05:36:52;6.32;;;4.65;;
20154;SDS011;10238;49.556;10.956;2024-02-16T05:39:40;6.88;;;5.13;;
20154;SDS011;10238;49.556;10.956;2024-02-16T05:42:40;8.07;;;4.72;;
20154;SDS011;10238;49.556;10.956;2024-02-16T05:45:29;6.18;;;3.67;;
20154;SDS011;10238;49.556;10.956;2024-02-16T05:48:17;6.20;;;4.40;;
20154;SDS011;10238;49.556;10.956;2024-02-16T05:51:05;7.95;;;4.70;;
20154;SDS011;10238;49.556;10.956;2024-02-16T05:53:54;4.82;;;3.65;;
20154;SDS011;10238;49.556;10.956;2024-02-16T05:56:42;8.38;;;3.83;;
20154;SDS011;10238;49.556;10.956;2024-02-16T05:59:30;6.05;;;4.53;;
20154;SDS011;10238;49.556;10.956;2024-02-16T06:02:19;5.75;;;4.82;;
20154;SDS011;10238;49.556;10.956;2024-02-16T06:05:11;5.60;;;4.88;;
20154;SDS011;10238;49.556;10.956;2024-02-16T06:07:59;5.45;;;3.88;;
20154;SDS011;10238;49.556;10.956;2024-02-16T06:10:46;4.45;;;3.80;;
20154;SDS011;10238;49.556;10.956;2024-02-16T06:13:39;7.18;;;4.90;;
20154;SDS011;10238;49.556;10.956;2024-02-16T06:16:27;8.82;;;4.10;;
20154;SDS011;10238;49.556;10.956;2024-02-16T06:19:16;4.95;;;3.42;;
20154;SDS011;10238;49.556;10.956;2024-02-16T06:22:04;6.15;;;4.70;;
20154;SDS011;10238;49.556;10.956;2024-02-16T06:24:54;9.07;;;5.03;;
20154;SDS011;10238;49.556;10.956;2024-02-16T06:27:41;5.72;;;4.57;;
20154;SDS011;10238;49.556;10.956;2024-02-16T06:30:30;7.20;;;5.05;;
20154;SDS011;10238;49.556;10.956;2024-02-16T06:33:18;9.70;;;5.00;;
20154;SDS011;10238;49.556;10.956;2024-02-16T06:36:08;6.57;;;3.90;;
20154;SDS011;10238;49.556;10.956;2024-02-16T06:38:56;6.15;;;3.97;;
20154;SDS011;10238;49.556;10.956;2024-02-16T06:41:45;7.15;;;4.50;;
20154;SDS011;10238;49.556;10.956;2024-02-16T06:44:34;8.13;;;5.13;;
20154;SDS011;10238;49.556;10.956;2024-02-16T06:47:21;7.93;;;5.47;;
20154;SDS011;10238;49.556;10.956;2024-02-16T06:50:11;8.57;;;5.13;;
20154;SDS011;10238;49.556;10.956;2024-02-16T06:53:01;7.32;;;5.00;;
20154;SDS011;10238;49.556;10.956;2024-02-16T06:55:48;7.63;;;5.13;;
20154;SDS011;10238;49.556;10.956;2024-02-16T06:58:37;6.75;;;5.25;;
20154;SDS011;10238;49.556;10.956;2024-02-16T07:01:24;8.85;;;5.53;;
20154;SDS011;10238;49.556;10.956;2024-02-16T07:04:13;7.70;;;5.53;;
20154;SDS011;10238;49.556;10.956;2024-02-16T07:07:01;8.10;;;5.55;;
20154;SDS011;10238;49.556;10.956;2024-02-16T07:09:51;9.02;;;6.63;;
20154;SDS011;10238;49.556;10.956;2024-02-16T07:12:39;8.43;;;6.40;;
20154;SDS011;10238;49.556;10.956;2024-02-16T07:15:27;8.57;;;6.60;;
20154;SDS011;10238;49.556;10.956;2024-02-16T07:18:15;11.23;;;6.70;;
20154;SDS011;10238;49.556;10.956;2024-02-16T07:21:03;11.52;;;7.65;;
20154;SDS011;10238;49.556;10.956;2024-02-16T07:23:51;10.35;;;7.10;;
20154;SDS011;10238;49.556;10.956;2024-02-16T07:26:41;9.75;;;6.65;;
20154;SDS011;10238;49.556;10.956;2024-02-16T07:29:29;10.43;;;6.78;;
20154;SDS011;10238;49.556;10.956;2024-02-16T07:32:17;12.88;;;7.93;;
20154;SDS011;10238;49.556;10.956;2024-02-16T07:35:05;15.48;;;7.55;;
20154;SDS011;10238;49.556;10.956;2024-02-16T07:37:55;14.13;;;8.90;;
20154;SDS011;10238;49.556;10.956;2024-02-16T07:40:43;15.50;;;8.68;;
20154;SDS011;10238;49.556;10.956;2024-02-16T07:43:32;15.40;;;9.00;;
20154;SDS011;10238;49.556;10.956;2024-02-16T07:46:21;11.90;;;9.18;;
20154;SDS011;10238;49.556;10.956;2024-02-16T07:49:09;16.77;;;9.77;;
20154;SDS011;10238;49.556;10.956;2024-02-16T07:51:58;15.65;;;9.30;;
20154;SDS011;10238;49.556;10.956;2024-02-16T07:54:47;14.55;;;8.77;;
20154;SDS011;10238;49.556;10.956;2024-02-16T07:57:37;16.08;;;9.75;;
20154;SDS011;10238;49.556;10.956;2024-02-16T08:00:26;18.48;;;9.98;;
20154;SDS011;10238;49.556;10.956;2024-02-16T08:03:16;15.35;;;9.68;;
20154;SDS011;10238;49.556;10.956;2024-02-16T08:06:06;16.50;;;9.48;;
20154;SDS011;10238;49.556;10.956;2024-02-16T08:08:55;12.75;;;9.20;;
20154;SDS011;10238;49.556;10.956;2024-02-16T08:11:43;15.55;;;9.98;;
20154;SDS011;10238;49.556;10.956;2024-02-16T08:14:30;14.88;;;8.95;;
20154;SDS011;10238;49.556;10.956;2024-02-16T08:17:19;15.93;;;10.02;;
20154;SDS011;10238;49.556;10.956;2024-02-16T08:20:08;14.52;;;9.13;;
20154;SDS011;10238;49.556;10.956;2024-02-16T08:22:57;15.00;;;9.75;;
20154;SDS011;10238;49.556;10.956;2024-02-16T08:25:45;15.95;;;9.55;;
20154;SDS011;10238;49.556;10.956;2024-02-16T08:28:33;13.88;;;9.48;;
20154;SDS011;10238;49.556;10.956;2024-02-16T08:31:21;16.10;;;9.88;;
20154;SDS011;10238;49.556;10.956;2024-02-16T08:34:10;13.27;;;9.32;;
20154;SDS011;10238;49.556;10.956;2024-02-16T08:36:59;16.08;;;9.00;;
20154;SDS011;10238;49.556;10.956;2024-02-16T08:39:47;12.77;;;9.35;;
20154;SDS011;10238;49.556;10.956;2024-02-16T08:42:35;14.32;;;9.30;;
20154;SDS011;10238;49.556;10.956;2024-02-16T08:45:22;12.02;;;9.15;;
20154;SDS011;10238;49.556;10.956;2024-02-16T08:48:10;15.00;;;10.57;;
20154;SDS011;10238;49.556;10.956;2024-02-16T08:50:59;16.40;;;9.07;;
20154;SDS011;10238;49.556;10.956;2024-02-16T08:53:48;16.17;;;9.02;;
20154;SDS011;10238;49.556;10.956;2024-02-16T08:56:36;14.95;;;10.05;;
20154;SDS011;10238;49.556;10.956;2024-02-16T08:59:25;15.13;;;9.18;;
20154;SDS011;10238;49.556;10.956;2024-02-16T09:02:14;13.38;;;9.80;;
20154;SDS011;10238;49.556;10.956;2024-02-16T09:05:02;14.45;;;8.80;;
20154;SDS011;10238;49.556;10.956;2024-02-16T09:07:51;14.20;;;10.52;;
20154;SDS011;10238;49.556;10.956;2024-02-16T09:10:39;14.57;;;9.10;;
20154;SDS011;10238;49.556;10.956;2024-02-16T09:13:26;15.60;;;9.30;;
20154;SDS011;10238;49.556;10.956;2024-02-16T09:16:18;16.20;;;10.18;;
20154;SDS011;10238;49.556;10.956;2024-02-16T09:19:09;14.95;;;10.10;;
20154;SDS011;10238;49.556;10.956;2024-02-16T09:21:57;15.55;;;10.20;;
20154;SDS011;10238;49.556;10.956;2024-02-16T09:24:50;13.07;;;9.30;;
20154;SDS011;10238;49.556;10.956;2024-02-16T09:27:38;15.27;;;9.65;;
20154;SDS011;10238;49.556;10.956;2024-02-16T09:30:27;13.35;;;9.90;;
20154;SDS011;10238;49.556;10.956;2024-02-16T09:33:15;13.90;;;9.88;;
20154;SDS011;10238;49.556;10.956;2024-02-16T09:36:03;14.95;;;10.93;;
20154;SDS011;10238;49.556;10.956;2024-02-16T09:38:51;14.77;;;9.75;;
20154;SDS011;10238;49.556;10.956;2024-02-16T09:41:41;14.13;;;10.15;;
20154;SDS011;10238;49.556;10.956;2024-02-16T09:44:29;17.58;;;10.15;;
20154;SDS011;10238;49.556;10.956;2024-02-16T09:47:22;13.43;;;10.23;;
20154;SDS011;10238;49.556;10.956;2024-02-16T09:50:15;15.07;;;10.18;;
20154;SDS011;10238;49.556;10.956;2024-02-16T09:53:03;15.27;;;9.30;;
20154;SDS011;10238;49.556;10.956;2024-02-16T09:55:53;15.07;;;8.85;;
20154;SDS011;10238;49.556;10.956;2024-02-16T09:58:43;11.98;;;8.82;;
20154;SDS011;10238;49.556;10.956;2024-02-16T10:01:31;10.05;;;7.65;;
20154;SDS011;10238;49.556;10.956;2024-02-16T10:04:18;14.95;;;9.88;;
20154;SDS011;10238;49.556;10.956;2024-02-16T10:07:06;12.95;;;9.45;;
20154;SDS011;10238;49.556;10.956;2024-02-16T10:09:58;14.97;;;8.60;;
20154;SDS011;10238;49.556;10.956;2024-02-16T10:12:45;11.25;;;8.43;;
20154;SDS011;10238;49.556;10.956;2024-02-16T10:15:34;16.25;;;9.15;;
20154;SDS011;10238;49.556;10.956;2024-02-16T10:18:27;15.57;;;9.25;;
20154;SDS011;10238;49.556;10.956;2024-02-16T10:21:23;12.02;;;8.57;;
20154;SDS011;10238;49.556;10.956;2024-02-16T10:24:12;10.00;;;7.93;;
20154;SDS011;10238;49.556;10.956;2024-02-16T10:27:01;12.73;;;8.60;;
20154;SDS011;10238;49.556;10.956;2024-02-16T10:29:49;11.32;;;8.20;;
20154;SDS011;10238;49.556;10.956;2024-02-16T10:32:42;11.55;;;9.15;;
20154;SDS011;10238;49.556;10.956;2024-02-16T10:35:30;10.93;;;7.70;;
20154;SDS011;10238;49.556;10.956;2024-02-16T10:38:20;13.27;;;9.02;;
20154;SDS011;10238;49.556;10.956;2024-02-16T10:41:09;13.15;;;7.90;;
20154;SDS011;10238;49.556;10.956;2024-02-16T10:43:57;12.75;;;9.63;;
20154;SDS011;10238;49.556;10.956;2024-02-16T10:46:45;12.68;;;8.95;;
20154;SDS011;10238;49.556;10.956;2024-02-16T10:49:34;14.27;;;8.95;;
20154;SDS011;10238;49.556;10.956;2024-02-16T10:52:23;13.60;;;8.68;;
20154;SDS011;10238;49.556;10.956;2024-02-16T10:55:11;11.07;;;8.77;;
20154;SDS011;10238;49.556;10.956;2024-02-16T10:58:01;13.00;;;8.43;;
20154;SDS011;10238;49.556;10.956;2024-02-16T11:00:49;7.68;;;6.75;;
20154;SDS011;10238;49.556;10.956;2024-02-16T11:03:38;12.20;;;8.30;;
20154;SDS011;10238;49.556;10.956;2024-02-16T11:06:28;10.70;;;7.78;;
20154;SDS011;10238;49.556;10.956;2024-02-16T11:09:28;13.27;;;9.73;;
20154;SDS011;10238;49.556;10.956;2024-02-16T11:12:17;13.55;;;8.48;;
20154;SDS011;10238;49.556;10.956;2024-02-16T11:15:06;12.75;;;7.65;;
20154;SDS011;10238;49.556;10.956;2024-02-16T11:17:58;10.30;;;7.75;;
20154;SDS011;10238;49.556;10.956;2024-02-16T11:20:48;10.25;;;8.23;;
20154;SDS011;10238;49.556;10.956;2024-02-16T11:23:38;9.48;;;7.80;;
20154;SDS011;10238;49.556;10.956;2024-02-16T11:26:28;9.80;;;6.90;;
20154;SDS011;10238;49.556;10.956;2024-02-16T11:29:15;15.07;;;7.80;;
20154;SDS011;10238;49.556;10.956;2024-02-16T11:32:04;14.00;;;8.00;;
20154;SDS011;10238;49.556;10.956;2024-02-16T11:34:53;8.77;;;7.30;;
20154;SDS011;10238;49.556;10.956;2024-02-16T11:37:41;11.25;;;7.47;;
20154;SDS011;10238;49.556;10.956;2024-02-16T11:40:32;11.93;;;7.70;;
20154;SDS011;10238;49.556;10.956;2024-02-16T11:43:20;12.75;;;7.88;;
20154;SDS011;10238;49.556;10.956;2024-02-16T11:46:14;11.73;;;7.53;;
20154;SDS011;10238;49.556;10.956;2024-02-16T11:49:04;9.43;;;7.60;;
20154;SDS011;10238;49.556;10.956;2024-02-16T11:51:52;11.75;;;7.10;;
20154;SDS011;10238;49.556;10.956;2024-02-16T11:54:43;23.83;;;13.57;;
20154;SDS011;10238;49.556;10.956;2024-02-16T11:57:32;13.98;;;8.43;;
20154;SDS011;10238;49.556;10.956;2024-02-16T12:00:21;12.60;;;8.27;;
20154;SDS011;10238;49.556;10.956;2024-02-16T12:03:09;10.85;;;9.15;;
20154;SDS011;10238;49.556;10.956;2024-02-16T12:05:58;10.02;;;7.70;;
20154;SDS011;10238;49.556;10.956;2024-02-16T12:08:47;8.98;;;6.97;;
20154;SDS011;10238;49.556;10.956;2024-02-16T12:11:38;13.30;;;9.23;;
20154;SDS011;10238;49.556;10.956;2024-02-16T12:14:28;10.82;;;7.30;;
20154;SDS011;10238;49.556;10.956;2024-02-16T12:17:16;10.40;;;6.35;;
20154;SDS011;10238;49.556;10.956;2024-02-16T12:20:10;9.98;;;7.47;;
20154;SDS011;10238;49.556;10.956;2024-02-16T12:23:10;10.60;;;7.47;;
20154;SDS011;10238;49.556;10.956;2024-02-16T12:25:58;15.77;;;8.30;;
20154;SDS011;10238;49.556;10.956;2024-02-16T12:28:47;9.43;;;7.20;;
20154;SDS011;10238;49.556;10.956;2024-02-16T12:31:37;12.85;;;7.47;;
20154;SDS011;10238;49.556;10.956;2024-02-16T12:34:25;10.27;;;6.38;;
20154;SDS011;10238;49.556;10.956;2024-02-16T12:37:14;11.20;;;8.13;;
20154;SDS011;10238;49.556;10.956;2024-02-16T12:40:02;11.75;;;8.05;;
20154;SDS011;10238;49.556;10.956;2024-02-16T12:42:52;10.40;;;7.70;;
20154;SDS011;10238;49.556;10.956;2024-02-16T12:45:39;8.73;;;6.63;;
20154;SDS011;10238;49.556;10.956;2024-02-16T12:48:29;10.02;;;8.20;;
20154;SDS011;10238;49.556;10.956;2024-02-16T12:51:18;11.50;;;8.63;;
20154;SDS011;10238;49.556;10.956;2024-02-16T12:54:08;12.05;;;8.15;;
20154;SDS011;10238;49.556;10.956;2024-02-16T12:56:59;10.98;;;8.50;;
20154;SDS011;10238;49.556;10.956;2024-02-16T12:59:47;9.68;;;7.88;;
20154;SDS011;10238;49.556;10.956;2024-02-16T13:02:35;9.43;;;7.07;;
20154;SDS011;10238;49.556;10.956;2024-02-16T13:05:24;10.82;;;8.63;;
20154;SDS011;10238;49.556;10.956;2024-02-16T13:08:13;6.63;;;5.88;;
20154;SDS011;10238;49.556;10.956;2024-02-16T13:11:01;9.80;;;7.68;;
20154;SDS011;10238;49.556;10.956;2024-02-16T13:13:50;8.63;;;6.72;;
20154;SDS011;10238;49.556;10.956;2024-02-16T13:16:38;8.10;;;6.80;;
20154;SDS011;10238;49.556;10.956;2024-02-16T13:19:25;12.35;;;7.78;;
20154;SDS011;10238;49.556;10.956;2024-02-16T13:22:14;7.25;;;5.78;;
20154;SDS011;10238;49.556;10.956;2024-02-16T13:25:02;10.43;;;6.65;;
20154;SDS011;10238;49.556;10.956;2024-02-16T13:27:51;8.80;;;6.00;;
20154;SDS011;10238;49.556;10.956;2024-02-16T13:30:41;8.15;;;7.07;;
20154;SDS011;10238;49.556;10.956;2024-02-16T13:33:31;8.45;;;7.55;;
20154;SDS011;10238;49.556;10.956;2024-02-16T13:36:19;9.45;;;7.45;;
20154;SDS011;10238;49.556;10.956;2024-02-16T13:39:10;9.25;;;7.40;;
20154;SDS011;10238;49.556;10.956;2024-02-16T13:42:00;10.15;;;7.15;;
20154;SDS011;10238;49.556;10.956;2024-02-16T13:44:48;10.32;;;6.03;;
20154;SDS011;10238;49.556;10.956;2024-02-16T13:47:36;7.93;;;5.85;;
20154;SDS011;10238;49.556;10.956;2024-02-16T13:50:25;7.15;;;6.45;;
20154;SDS011;10238;49.556;10.956;2024-02-16T13:53:13;8.85;;;7.25;;
20154;SDS011;10238;49.556;10.956;2024-02-16T13:56:08;10.18;;;6.68;;
20154;SDS011;10238;49.556;10.956;2024-02-16T13:58:56;10.55;;;7.03;;
20154;SDS011;10238;49.556;10.956;2024-02-16T14:01:45;10.90;;;6.75;;
20154;SDS011;10238;49.556;10.956;2024-02-16T14:04:35;9.98;;;6.38;;
20154;SDS011;10238;49.556;10.956;2024-02-16T14:07:29;8.48;;;6.88;;
20154;SDS011;10238;49.556;10.956;2024-02-16T14:10:27;13.27;;;7.47;;
20154;SDS011;10238;49.556;10.956;2024-02-16T14:13:16;8.68;;;6.95;;
20154;SDS011;10238;49.556;10.956;2024-02-16T14:16:08;10.98;;;6.45;;
20154;SDS011;10238;49.556;10.956;2024-02-16T14:18:56;7.57;;;6.00;;
20154;SDS011;10238;49.556;10.956;2024-02-16T14:21:43;10.02;;;7.20;;
20154;SDS011;10238;49.556;10.956;2024-02-16T14:24:33;9.18;;;6.60;;
20154;SDS011;10238;49.556;10.956;2024-02-16T14:27:21;7.97;;;7.03;;
20154;SDS011;10238;49.556;10.956;2024-02-16T14:30:11;8.80;;;6.50;;
20154;SDS011;10238;49.556;10.956;2024-02-16T14:33:00;8.45;;;6.45;;
20154;SDS011;10238;49.556;10.956;2024-02-16T14:35:50;11.75;;;6.85;;
20154;SDS011;10238;49.556;10.956;2024-02-16T14:38:38;9.80;;;6.30;;
20154;SDS011;10238;49.556;10.956;2024-02-16T14:41:27;10.70;;;6.63;;
20154;SDS011;10238;49.556;10.956;2024-02-16T14:44:15;9.27;;;6.68;;
20154;SDS011;10238;49.556;10.956;2024-02-16T14:47:05;7.13;;;6.03;;
20154;SDS011;10238;49.556;10.956;2024-02-16T14:49:56;10.35;;;6.80;;
20154;SDS011;10238;49.556;10.956;2024-02-16T14:52:44;9.68;;;6.82;;
20154;SDS011;10238;49.556;10.956;2024-02-16T14:55:32;8.43;;;6.70;;
20154;SDS011;10238;49.556;10.956;2024-02-16T14:58:20;9.95;;;6.82;;
20154;SDS011;10238;49.556;10.956;2024-02-16T15:01:08;8.32;;;6.43;;
20154;SDS011;10238;49.556;10.956;2024-02-16T15:03:57;8.38;;;7.05;;
20154;SDS011;10238;49.556;10.956;2024-02-16T15:06:45;9.35;;;7.10;;
20154;SDS011;10238;49.556;10.956;2024-02-16T15:09:33;9.00;;;6.50;;
20154;SDS011;10238;49.556;10.956;2024-02-16T15:12:20;10.90;;;6.68;;
20154;SDS011;10238;49.556;10.956;2024-02-16T15:15:08;7.70;;;6.07;;
20154;SDS011;10238;49.556;10.956;2024-02-16T15:17:57;10.65;;;5.00;;
20154;SDS011;10238;49.556;10.956;2024-02-16T15:20:47;10.00;;;5.93;;
20154;SDS011;10238;49.556;10.956;2024-02-16T15:23:39;7.72;;;5.68;;
20154;SDS011;10238;49.556;10.956;2024-02-16T15:26:27;10.20;;;7.40;;
20154;SDS011;10238;49.556;10.956;2024-02-16T15:29:14;14.23;;;6.95;;
20154;SDS011;10238;49.556;10.956;2024-02-16T15:32:02;12.05;;;7.15;;
20154;SDS011;10238;49.556;10.956;2024-02-16T15:34:51;10.77;;;5.22;;
20154;SDS011;10238;49.556;10.956;2024-02-16T15:37:42;9.15;;;6.50;;
20154;SDS011;10238;49.556;10.956;2024-02-16T15:40:30;9.95;;;6.82;;
20154;SDS011;10238;49.556;10.956;2024-02-16T15:43:19;13.20;;;7.95;;
20154;SDS011;10238;49.556;10.956;2024-02-16T15:46:11;10.57;;;8.10;;
20154;SDS011;10238;49.556;10.956;2024-02-16T15:49:01;12.68;;;7.30;;
20154;SDS011;10238;49.556;10.956;2024-02-16T15:51:49;12.90;;;8.23;;
20154;SDS011;10238;49.556;10.956;2024-02-16T15:54:39;14.05;;;8.20;;
20154;SDS011;10238;49.556;10.956;2024-02-16T15:57:27;11.23;;;6.93;;
20154;SDS011;10238;49.556;10.956;2024-02-16T16:00:15;10.63;;;7.20;;
20154;SDS011;10238;49.556;10.956;2024-02-16T16:03:04;7.10;;;5.45;;
20154;SDS011;10238;49.556;10.956;2024-02-16T16:05:52;9.73;;;6.80;;
20154;SDS011;10238;49.556;10.956;2024-02-16T16:08:40;11.55;;;6.97;;
20154;SDS011;10238;49.556;10.956;2024-02-16T16:11:29;11.35;;;7.45;;
20154;SDS011;10238;49.556;10.956;2024-02-16T16:14:17;9.40;;;6.93;;
20154;SDS011;10238;49.556;10.956;2024-02-16T16:17:15;10.80;;;7.15;;
20154;SDS011;10238;49.556;10.956;2024-02-16T16:20:06;10.43;;;7.10;;
20154;SDS011;10238;49.556;10.956;2024-02-16T16:22:57;12.18;;;7.50;;
20154;SDS011;10238;49.556;10.956;2024-02-16T16:25:47;10.15;;;7.25;;
20154;SDS011;10238;49.556;10.956;2024-02-16T16:28:36;12.38;;;8.48;;
20154;SDS011;10238;49.556;10.956;2024-02-16T16:31:24;12.68;;;8.95;;
20154;SDS011;10238;49.556;10.956;2024-02-16T16:34:12;13.90;;;10.10;;